sensor_id;sensor_type;location;lat;lon;timestamp;temperature;humidity
48936;DHT22;34745;52.276;10.528;2022-11-20T00:00:21;-1.20;1.00
48936;DHT22;34745;52.276;10.528;2022-11-20T00:02:48;-1.20;1.00
48936;DHT22;34745;52.276;10.528;2022-11-20T00:05:15;-1.20;1.00
48936;DHT22;34745;52.276;10.528;2022-11-20T00:07:42;-1.20;1.00
48936;DHT22;34745;52.276;10.528;2022-11-20T00:10:09;-1.20;1.00
48936;DHT22;34745;52.276;10.528;2022-11-20T00:12:36;-1.20;1.00
48936;DHT22;34745;52.276;10.528;2022-11-20T00:15:05;-1.20;1.00
48936;DHT22;34745;52.276;10.528;2022-11-20T00:17:33;-1.20;1.00
48936;DHT22;34745;52.276;10.528;2022-11-20T00:20:00;-1.10;1.00
48936;DHT22;34745;52.276;10.528;2022-11-20T00:22:27;-1.20;1.00
48936;DHT22;34745;52.276;10.528;2022-11-20T00:24:54;-1.20;1.00
48936;DHT22;34745;52.276;10.528;2022-11-20T00:27:21;-1.30;1.00
48936;DHT22;34745;52.276;10.528;2022-11-20T00:29:48;-1.30;1.00
48936;DHT22;34745;52.276;10.528;2022-11-20T00:32:17;-1.40;1.00
48936;DHT22;34745;52.276;10.528;2022-11-20T00:34:44;-1.30;1.00
48936;DHT22;34745;52.276;10.528;2022-11-20T00:37:11;-1.20;1.00
48936;DHT22;34745;52.276;10.528;2022-11-20T00:39:38;-1.20;1.00
48936;DHT22;34745;52.276;10.528;2022-11-20T00:42:05;-1.20;1.00
48936;DHT22;34745;52.276;10.528;2022-11-20T00:44:32;-1.20;1.00
48936;DHT22;34745;52.276;10.528;2022-11-20T00:46:59;-1.30;1.00
48936;DHT22;34745;52.276;10.528;2022-11-20T00:49:28;-1.30;1.00
48936;DHT22;34745;52.276;10.528;2022-11-20T00:51:55;-1.40;1.00
48936;DHT22;34745;52.276;10.528;2022-11-20T00:54:22;-1.40;1.00
48936;DHT22;34745;52.276;10.528;2022-11-20T00:56:49;-1.40;1.00
48936;DHT22;34745;52.276;10.528;2022-11-20T00:59:16;-1.40;1.00
48936;DHT22;34745;52.276;10.528;2022-11-20T01:01:43;-1.40;1.00
48936;DHT22;34745;52.276;10.528;2022-11-20T01:04:10;-1.50;1.00
48936;DHT22;34745;52.276;10.528;2022-11-20T01:06:39;-1.50;1.00
48936;DHT22;34745;52.276;10.528;2022-11-20T01:09:08;-1.50;1.00
48936;DHT22;34745;52.276;10.528;2022-11-20T01:11:38;-1.50;1.00
48936;DHT22;34745;52.276;10.528;2022-11-20T01:14:07;-1.50;1.00
48936;DHT22;34745;52.276;10.528;2022-11-20T01:16:36;-1.60;1.00
48936;DHT22;34745;52.276;10.528;2022-11-20T01:19:05;-1.60;1.00
48936;DHT22;34745;52.276;10.528;2022-11-20T01:21:35;-1.60;1.00
48936;DHT22;34745;52.276;10.528;2022-11-20T01:24:05;-1.60;1.00
48936;DHT22;34745;52.276;10.528;2022-11-20T01:26:35;-1.60;1.00
48936;DHT22;34745;52.276;10.528;2022-11-20T01:29:04;-1.70;1.00
48936;DHT22;34745;52.276;10.528;2022-11-20T01:31:33;-1.70;1.00
48936;DHT22;34745;52.276;10.528;2022-11-20T01:34:03;-1.70;1.00
48936;DHT22;34745;52.276;10.528;2022-11-20T01:36:32;-1.60;1.00
48936;DHT22;34745;52.276;10.528;2022-11-20T01:39:03;-1.70;1.00
48936;DHT22;34745;52.276;10.528;2022-11-20T01:41:32;-1.70;1.00
48936;DHT22;34745;52.276;10.528;2022-11-20T01:44:21;-1.60;1.00
48936;DHT22;34745;52.276;10.528;2022-11-20T01:46:54;-1.70;1.00
48936;DHT22;34745;52.276;10.528;2022-11-20T01:49:25;-1.70;1.00
48936;DHT22;34745;52.276;10.528;2022-11-20T01:51:57;-1.70;1.00
48936;DHT22;34745;52.276;10.528;2022-11-20T01:54:34;-1.70;1.00
48936;DHT22;34745;52.276;10.528;2022-11-20T01:57:04;-1.70;1.00
48936;DHT22;34745;52.276;10.528;2022-11-20T01:59:33;-1.70;1.00
48936;DHT22;34745;52.276;10.528;2022-11-20T02:02:02;-1.80;1.00
48936;DHT22;34745;52.276;10.528;2022-11-20T02:04:29;-1.80;1.00
48936;DHT22;34745;52.276;10.528;2022-11-20T02:06:59;-1.80;1.00
48936;DHT22;34745;52.276;10.528;2022-11-20T02:09:28;-1.80;1.00
48936;DHT22;34745;52.276;10.528;2022-11-20T02:11:56;-1.80;1.00
48936;DHT22;34745;52.276;10.528;2022-11-20T02:14:24;-1.90;1.00
48936;DHT22;34745;52.276;10.528;2022-11-20T02:16:53;-1.80;1.00
48936;DHT22;34745;52.276;10.528;2022-11-20T02:19:23;-1.80;1.00
48936;DHT22;34745;52.276;10.528;2022-11-20T02:21:57;-1.80;1.00
48936;DHT22;34745;52.276;10.528;2022-11-20T02:24:27;-1.80;1.00
48936;DHT22;34745;52.276;10.528;2022-11-20T02:26:59;-1.80;1.00
48936;DHT22;34745;52.276;10.528;2022-11-20T02:29:28;-1.50;1.00
48936;DHT22;34745;52.276;10.528;2022-11-20T02:31:59;-1.80;1.00
48936;DHT22;34745;52.276;10.528;2022-11-20T02:34:27;-1.70;1.00
48936;DHT22;34745;52.276;10.528;2022-11-20T02:36:56;-1.70;1.00
48936;DHT22;34745;52.276;10.528;2022-11-20T02:39:26;-1.60;1.00
48936;DHT22;34745;52.276;10.528;2022-11-20T02:41:55;-1.60;1.00
48936;DHT22;34745;52.276;10.528;2022-11-20T02:44:23;-1.60;1.00
48936;DHT22;34745;52.276;10.528;2022-11-20T02:46:51;-1.60;1.00
48936;DHT22;34745;52.276;10.528;2022-11-20T02:49:18;-1.60;1.00
48936;DHT22;34745;52.276;10.528;2022-11-20T02:51:46;-1.60;1.00
48936;DHT22;34745;52.276;10.528;2022-11-20T02:54:12;-1.60;1.00
48936;DHT22;34745;52.276;10.528;2022-11-20T02:56:41;-1.60;1.00
48936;DHT22;34745;52.276;10.528;2022-11-20T02:59:08;-1.60;1.00
48936;DHT22;34745;52.276;10.528;2022-11-20T03:01:35;-1.70;1.00
48936;DHT22;34745;52.276;10.528;2022-11-20T03:04:03;-1.60;1.00
48936;DHT22;34745;52.276;10.528;2022-11-20T03:06:30;-1.60;1.00
48936;DHT22;34745;52.276;10.528;2022-11-20T03:08:57;-1.60;1.00
48936;DHT22;34745;52.276;10.528;2022-11-20T03:11:24;-1.50;1.00
48936;DHT22;34745;52.276;10.528;2022-11-20T03:13:52;-1.50;1.00
48936;DHT22;34745;52.276;10.528;2022-11-20T03:16:21;-1.60;1.00
48936;DHT22;34745;52.276;10.528;2022-11-20T03:18:49;-1.60;1.00
48936;DHT22;34745;52.276;10.528;2022-11-20T03:21:18;-1.60;1.00
48936;DHT22;34745;52.276;10.528;2022-11-20T03:23:45;-1.60;1.00
48936;DHT22;34745;52.276;10.528;2022-11-20T03:26:16;-1.60;1.00
48936;DHT22;34745;52.276;10.528;2022-11-20T03:28:47;-1.50;1.00
48936;DHT22;34745;52.276;10.528;2022-11-20T03:31:17;-1.60;1.00
48936;DHT22;34745;52.276;10.528;2022-11-20T03:33:44;-1.60;1.00
48936;DHT22;34745;52.276;10.528;2022-11-20T03:36:13;-1.50;1.00
48936;DHT22;34745;52.276;10.528;2022-11-20T03:38:41;-1.50;1.00
48936;DHT22;34745;52.276;10.528;2022-11-20T03:41:10;-1.50;1.00
48936;DHT22;34745;52.276;10.528;2022-11-20T03:43:38;-1.60;1.00
48936;DHT22;34745;52.276;10.528;2022-11-20T03:46:06;-1.50;1.00
48936;DHT22;34745;52.276;10.528;2022-11-20T03:48:35;-1.50;1.00
48936;DHT22;34745;52.276;10.528;2022-11-20T03:51:09;-1.60;1.00
48936;DHT22;34745;52.276;10.528;2022-11-20T03:53:36;-1.50;1.00
48936;DHT22;34745;52.276;10.528;2022-11-20T03:56:05;-1.60;1.00
48936;DHT22;34745;52.276;10.528;2022-11-20T03:58:32;-1.60;1.00
48936;DHT22;34745;52.276;10.528;2022-11-20T04:01:05;-1.60;1.00
48936;DHT22;34745;52.276;10.528;2022-11-20T04:03:34;-1.60;1.00
48936;DHT22;34745;52.276;10.528;2022-11-20T04:06:03;-1.60;1.00
48936;DHT22;34745;52.276;10.528;2022-11-20T04:08:31;-1.50;1.00
48936;DHT22;34745;52.276;10.528;2022-11-20T04:11:08;-1.60;1.00
48936;DHT22;34745;52.276;10.528;2022-11-20T04:13:35;-1.60;1.00
48936;DHT22;34745;52.276;10.528;2022-11-20T04:16:03;-1.60;1.00
48936;DHT22;34745;52.276;10.528;2022-11-20T04:18:30;-1.60;1.00
48936;DHT22;34745;52.276;10.528;2022-11-20T04:20:59;-1.60;1.00
48936;DHT22;34745;52.276;10.528;2022-11-20T04:23:26;-1.70;1.00
48936;DHT22;34745;52.276;10.528;2022-11-20T04:25:54;-1.70;1.00
48936;DHT22;34745;52.276;10.528;2022-11-20T04:28:21;-1.70;1.00
48936;DHT22;34745;52.276;10.528;2022-11-20T04:30:49;-1.70;1.00
48936;DHT22;34745;52.276;10.528;2022-11-20T04:33:16;-1.70;1.00
48936;DHT22;34745;52.276;10.528;2022-11-20T04:35:44;-1.60;1.00
48936;DHT22;34745;52.276;10.528;2022-11-20T04:38:14;-1.60;1.00
48936;DHT22;34745;52.276;10.528;2022-11-20T04:40:41;-1.70;1.00
48936;DHT22;34745;52.276;10.528;2022-11-20T04:43:08;-1.70;1.00
48936;DHT22;34745;52.276;10.528;2022-11-20T04:45:35;-1.70;1.00
48936;DHT22;34745;52.276;10.528;2022-11-20T04:48:02;-1.80;1.00
48936;DHT22;34745;52.276;10.528;2022-11-20T04:50:30;-1.80;1.00
48936;DHT22;34745;52.276;10.528;2022-11-20T04:52:57;-1.80;1.00
48936;DHT22;34745;52.276;10.528;2022-11-20T04:55:25;-1.90;1.00
48936;DHT22;34745;52.276;10.528;2022-11-20T04:57:52;-1.90;1.00
48936;DHT22;34745;52.276;10.528;2022-11-20T05:00:19;-1.90;1.00
48936;DHT22;34745;52.276;10.528;2022-11-20T05:02:47;-1.80;1.00
48936;DHT22;34745;52.276;10.528;2022-11-20T05:05:14;-1.90;1.00
48936;DHT22;34745;52.276;10.528;2022-11-20T05:07:41;-1.70;1.00
48936;DHT22;34745;52.276;10.528;2022-11-20T05:10:09;-1.80;1.00
48936;DHT22;34745;52.276;10.528;2022-11-20T05:12:37;-1.80;1.00
48936;DHT22;34745;52.276;10.528;2022-11-20T05:15:05;-1.80;1.00
48936;DHT22;34745;52.276;10.528;2022-11-20T05:17:32;-1.80;1.00
48936;DHT22;34745;52.276;10.528;2022-11-20T05:20:00;-1.80;1.00
48936;DHT22;34745;52.276;10.528;2022-11-20T05:22:27;-1.90;1.00
48936;DHT22;34745;52.276;10.528;2022-11-20T05:24:54;-1.80;1.00
48936;DHT22;34745;52.276;10.528;2022-11-20T05:27:21;-1.80;1.00
48936;DHT22;34745;52.276;10.528;2022-11-20T05:29:49;-1.80;1.00
48936;DHT22;34745;52.276;10.528;2022-11-20T05:32:16;-1.80;1.00
48936;DHT22;34745;52.276;10.528;2022-11-20T05:34:43;-1.80;1.00
48936;DHT22;34745;52.276;10.528;2022-11-20T05:37:10;-1.80;1.00
48936;DHT22;34745;52.276;10.528;2022-11-20T05:39:37;-1.80;1.00
48936;DHT22;34745;52.276;10.528;2022-11-20T05:42:04;-1.90;1.00
48936;DHT22;34745;52.276;10.528;2022-11-20T05:44:51;-1.80;1.00
48936;DHT22;34745;52.276;10.528;2022-11-20T05:47:18;-1.80;1.00
48936;DHT22;34745;52.276;10.528;2022-11-20T05:49:45;-1.80;1.00
48936;DHT22;34745;52.276;10.528;2022-11-20T05:52:12;-1.80;1.00
48936;DHT22;34745;52.276;10.528;2022-11-20T05:54:40;-1.80;1.00
48936;DHT22;34745;52.276;10.528;2022-11-20T05:57:07;-1.70;1.00
48936;DHT22;34745;52.276;10.528;2022-11-20T05:59:34;-1.70;1.00
48936;DHT22;34745;52.276;10.528;2022-11-20T06:02:02;-1.60;1.00
48936;DHT22;34745;52.276;10.528;2022-11-20T06:04:29;-1.60;1.00
48936;DHT22;34745;52.276;10.528;2022-11-20T06:06:56;-1.50;1.00
48936;DHT22;34745;52.276;10.528;2022-11-20T06:09:23;-1.50;1.00
48936;DHT22;34745;52.276;10.528;2022-11-20T06:11:50;-1.50;1.00
48936;DHT22;34745;52.276;10.528;2022-11-20T06:14:17;-1.50;1.00
48936;DHT22;34745;52.276;10.528;2022-11-20T06:16:45;-1.50;1.00
48936;DHT22;34745;52.276;10.528;2022-11-20T06:19:13;-1.40;1.00
48936;DHT22;34745;52.276;10.528;2022-11-20T06:21:40;-1.40;1.00
48936;DHT22;34745;52.276;10.528;2022-11-20T06:24:09;-1.40;1.00
48936;DHT22;34745;52.276;10.528;2022-11-20T06:26:37;-1.40;1.00
48936;DHT22;34745;52.276;10.528;2022-11-20T06:29:04;-1.50;1.00
48936;DHT22;34745;52.276;10.528;2022-11-20T06:31:31;-1.60;1.00
48936;DHT22;34745;52.276;10.528;2022-11-20T06:34:01;-1.70;1.00
48936;DHT22;34745;52.276;10.528;2022-11-20T06:36:30;-1.70;1.00
48936;DHT22;34745;52.276;10.528;2022-11-20T06:38:57;-1.70;1.00
48936;DHT22;34745;52.276;10.528;2022-11-20T06:41:25;-1.70;1.00
48936;DHT22;34745;52.276;10.528;2022-11-20T06:43:52;-1.70;1.00
48936;DHT22;34745;52.276;10.528;2022-11-20T06:46:20;-1.60;1.00
48936;DHT22;34745;52.276;10.528;2022-11-20T06:48:48;-1.40;1.00
48936;DHT22;34745;52.276;10.528;2022-11-20T06:51:16;-1.60;1.00
48936;DHT22;34745;52.276;10.528;2022-11-20T06:53:44;-1.60;1.00
48936;DHT22;34745;52.276;10.528;2022-11-20T06:56:12;-1.60;1.00
48936;DHT22;34745;52.276;10.528;2022-11-20T06:58:39;-1.60;1.00
48936;DHT22;34745;52.276;10.528;2022-11-20T07:01:08;-1.50;1.00
48936;DHT22;34745;52.276;10.528;2022-11-20T07:03:36;-1.40;1.00
48936;DHT22;34745;52.276;10.528;2022-11-20T07:06:04;-1.30;1.00
48936;DHT22;34745;52.276;10.528;2022-11-20T07:08:32;-1.30;1.00
48936;DHT22;34745;52.276;10.528;2022-11-20T07:11:02;-1.30;1.00
48936;DHT22;34745;52.276;10.528;2022-11-20T07:13:33;-1.30;1.00
48936;DHT22;34745;52.276;10.528;2022-11-20T07:16:01;-1.30;1.00
48936;DHT22;34745;52.276;10.528;2022-11-20T07:18:28;-1.30;1.00
48936;DHT22;34745;52.276;10.528;2022-11-20T07:20:56;-1.30;1.00
48936;DHT22;34745;52.276;10.528;2022-11-20T07:23:26;-1.30;1.00
48936;DHT22;34745;52.276;10.528;2022-11-20T07:25:53;-1.20;1.00
48936;DHT22;34745;52.276;10.528;2022-11-20T07:28:23;-1.30;1.00
48936;DHT22;34745;52.276;10.528;2022-11-20T07:30:50;-1.10;1.00
48936;DHT22;34745;52.276;10.528;2022-11-20T07:33:17;-0.90;1.00
48936;DHT22;34745;52.276;10.528;2022-11-20T07:35:45;-0.70;1.00
48936;DHT22;34745;52.276;10.528;2022-11-20T07:38:12;-0.70;1.00
48936;DHT22;34745;52.276;10.528;2022-11-20T07:40:39;-0.90;1.00
48936;DHT22;34745;52.276;10.528;2022-11-20T07:43:07;-1.10;1.00
48936;DHT22;34745;52.276;10.528;2022-11-20T07:45:35;-1.10;1.00
48936;DHT22;34745;52.276;10.528;2022-11-20T07:48:02;-1.10;1.00
48936;DHT22;34745;52.276;10.528;2022-11-20T07:50:30;-1.10;1.00
48936;DHT22;34745;52.276;10.528;2022-11-20T07:53:01;-1.10;1.00
48936;DHT22;34745;52.276;10.528;2022-11-20T07:55:29;-1.10;1.00
48936;DHT22;34745;52.276;10.528;2022-11-20T07:57:57;-1.10;1.00
48936;DHT22;34745;52.276;10.528;2022-11-20T08:00:25;-1.20;1.00
48936;DHT22;34745;52.276;10.528;2022-11-20T08:02:54;-1.20;1.00
48936;DHT22;34745;52.276;10.528;2022-11-20T08:05:21;-1.10;1.00
48936;DHT22;34745;52.276;10.528;2022-11-20T08:07:48;-1.10;1.00
48936;DHT22;34745;52.276;10.528;2022-11-20T08:10:16;-1.10;1.00
48936;DHT22;34745;52.276;10.528;2022-11-20T08:12:44;-1.00;1.00
48936;DHT22;34745;52.276;10.528;2022-11-20T08:15:30;-1.00;1.00
48936;DHT22;34745;52.276;10.528;2022-11-20T08:18:04;-1.00;1.00
48936;DHT22;34745;52.276;10.528;2022-11-20T08:20:51;-1.00;1.00
48936;DHT22;34745;52.276;10.528;2022-11-20T08:23:18;-1.00;1.00
48936;DHT22;34745;52.276;10.528;2022-11-20T08:25:49;-0.90;1.00
48936;DHT22;34745;52.276;10.528;2022-11-20T08:28:16;-0.80;1.00
48936;DHT22;34745;52.276;10.528;2022-11-20T08:30:47;-0.80;1.00
48936;DHT22;34745;52.276;10.528;2022-11-20T08:33:15;-0.80;1.00
48936;DHT22;34745;52.276;10.528;2022-11-20T08:35:44;-0.70;1.00
48936;DHT22;34745;52.276;10.528;2022-11-20T08:38:11;-0.70;1.00
48936;DHT22;34745;52.276;10.528;2022-11-20T08:40:38;-0.70;1.00
48936;DHT22;34745;52.276;10.528;2022-11-20T08:43:05;-0.60;1.00
48936;DHT22;34745;52.276;10.528;2022-11-20T08:45:33;-0.60;1.00
48936;DHT22;34745;52.276;10.528;2022-11-20T08:48:02;-0.60;1.00
48936;DHT22;34745;52.276;10.528;2022-11-20T08:50:31;-0.60;1.00
48936;DHT22;34745;52.276;10.528;2022-11-20T08:53:02;-0.60;1.00
48936;DHT22;34745;52.276;10.528;2022-11-20T08:55:30;-0.70;1.00
48936;DHT22;34745;52.276;10.528;2022-11-20T08:57:57;-0.70;1.00
48936;DHT22;34745;52.276;10.528;2022-11-20T09:00:24;-0.70;1.00
48936;DHT22;34745;52.276;10.528;2022-11-20T09:02:51;-0.60;1.00
48936;DHT22;34745;52.276;10.528;2022-11-20T09:05:19;-0.60;1.00
48936;DHT22;34745;52.276;10.528;2022-11-20T09:07:47;-0.60;1.00
48936;DHT22;34745;52.276;10.528;2022-11-20T09:10:14;-0.60;1.00
48936;DHT22;34745;52.276;10.528;2022-11-20T09:12:50;-0.50;1.00
48936;DHT22;34745;52.276;10.528;2022-11-20T09:15:19;-0.50;1.00
48936;DHT22;34745;52.276;10.528;2022-11-20T09:17:51;-0.40;1.00
48936;DHT22;34745;52.276;10.528;2022-11-20T09:20:19;-0.40;1.00
48936;DHT22;34745;52.276;10.528;2022-11-20T09:22:47;-0.40;1.00
48936;DHT22;34745;52.276;10.528;2022-11-20T09:25:15;-0.50;1.00
48936;DHT22;34745;52.276;10.528;2022-11-20T09:27:42;-0.50;1.00
48936;DHT22;34745;52.276;10.528;2022-11-20T09:30:12;-0.40;1.00
48936;DHT22;34745;52.276;10.528;2022-11-20T09:32:40;-0.30;1.00
48936;DHT22;34745;52.276;10.528;2022-11-20T09:35:08;-0.20;1.00
48936;DHT22;34745;52.276;10.528;2022-11-20T09:37:35;0.00;1.00
48936;DHT22;34745;52.276;10.528;2022-11-20T09:40:05;0.10;1.00
48936;DHT22;34745;52.276;10.528;2022-11-20T09:42:37;0.30;1.00
48936;DHT22;34745;52.276;10.528;2022-11-20T09:45:23;0.60;1.00
48936;DHT22;34745;52.276;10.528;2022-11-20T09:48:21;0.80;1.00
48936;DHT22;34745;52.276;10.528;2022-11-20T09:50:57;0.90;1.00
48936;DHT22;34745;52.276;10.528;2022-11-20T09:53:32;1.00;1.00
48936;DHT22;34745;52.276;10.528;2022-11-20T09:56:04;1.00;1.00
48936;DHT22;34745;52.276;10.528;2022-11-20T09:58:36;1.00;1.00
48936;DHT22;34745;52.276;10.528;2022-11-20T10:01:10;1.00;1.00
48936;DHT22;34745;52.276;10.528;2022-11-20T10:03:45;0.90;1.00
48936;DHT22;34745;52.276;10.528;2022-11-20T10:06:18;1.00;1.00
48936;DHT22;34745;52.276;10.528;2022-11-20T10:08:55;1.10;1.00
48936;DHT22;34745;52.276;10.528;2022-11-20T10:11:35;1.20;1.00
48936;DHT22;34745;52.276;10.528;2022-11-20T10:14:13;1.30;1.00
48936;DHT22;34745;52.276;10.528;2022-11-20T10:16:47;1.40;1.00
48936;DHT22;34745;52.276;10.528;2022-11-20T10:19:37;1.60;1.00
48936;DHT22;34745;52.276;10.528;2022-11-20T10:22:20;2.30;1.00
48936;DHT22;34745;52.276;10.528;2022-11-20T10:24:56;2.20;1.00
48936;DHT22;34745;52.276;10.528;2022-11-20T10:27:44;2.20;1.00
48936;DHT22;34745;52.276;10.528;2022-11-20T10:30:17;2.00;1.00
48936;DHT22;34745;52.276;10.528;2022-11-20T10:32:46;2.00;1.00
48936;DHT22;34745;52.276;10.528;2022-11-20T10:35:20;1.70;1.00
48936;DHT22;34745;52.276;10.528;2022-11-20T10:37:53;1.80;1.00
48936;DHT22;34745;52.276;10.528;2022-11-20T10:40:29;1.40;1.00
48936;DHT22;34745;52.276;10.528;2022-11-20T10:43:02;1.50;1.00
48936;DHT22;34745;52.276;10.528;2022-11-20T10:45:44;1.60;1.00
48936;DHT22;34745;52.276;10.528;2022-11-20T10:48:21;1.80;1.00
48936;DHT22;34745;52.276;10.528;2022-11-20T10:51:08;1.90;1.00
48936;DHT22;34745;52.276;10.528;2022-11-20T10:53:45;2.00;1.00
48936;DHT22;34745;52.276;10.528;2022-11-20T10:56:19;1.90;1.00
48936;DHT22;34745;52.276;10.528;2022-11-20T10:58:58;1.90;1.00
48936;DHT22;34745;52.276;10.528;2022-11-20T11:01:27;1.80;1.00
48936;DHT22;34745;52.276;10.528;2022-11-20T11:03:55;1.70;1.00
48936;DHT22;34745;52.276;10.528;2022-11-20T11:06:28;1.70;1.00
48936;DHT22;34745;52.276;10.528;2022-11-20T11:08:59;1.90;1.00
48936;DHT22;34745;52.276;10.528;2022-11-20T11:11:29;2.10;1.00
48936;DHT22;34745;52.276;10.528;2022-11-20T11:14:06;2.10;1.00
48936;DHT22;34745;52.276;10.528;2022-11-20T11:16:33;2.20;1.00
48936;DHT22;34745;52.276;10.528;2022-11-20T11:19:04;2.90;1.00
48936;DHT22;34745;52.276;10.528;2022-11-20T11:21:31;4.40;1.00
48936;DHT22;34745;52.276;10.528;2022-11-20T11:24:01;5.50;1.00
48936;DHT22;34745;52.276;10.528;2022-11-20T11:26:55;6.20;1.00
48936;DHT22;34745;52.276;10.528;2022-11-20T11:29:25;6.00;1.00
48936;DHT22;34745;52.276;10.528;2022-11-20T11:32:04;5.70;1.00
48936;DHT22;34745;52.276;10.528;2022-11-20T11:34:32;5.50;1.00
48936;DHT22;34745;52.276;10.528;2022-11-20T11:37:00;4.50;1.00
48936;DHT22;34745;52.276;10.528;2022-11-20T11:39:30;4.20;1.00
48936;DHT22;34745;52.276;10.528;2022-11-20T11:41:58;4.40;1.00
48936;DHT22;34745;52.276;10.528;2022-11-20T11:44:31;5.70;1.00
48936;DHT22;34745;52.276;10.528;2022-11-20T11:47:37;6.30;1.00
48936;DHT22;34745;52.276;10.528;2022-11-20T11:50:15;5.50;1.00
48936;DHT22;34745;52.276;10.528;2022-11-20T11:52:46;5.70;1.00
48936;DHT22;34745;52.276;10.528;2022-11-20T11:55:19;7.30;1.00
48936;DHT22;34745;52.276;10.528;2022-11-20T11:57:54;7.90;1.00
48936;DHT22;34745;52.276;10.528;2022-11-20T12:00:26;7.60;1.00
48936;DHT22;34745;52.276;10.528;2022-11-20T12:02:59;6.00;1.00
48936;DHT22;34745;52.276;10.528;2022-11-20T12:05:29;5.00;1.00
48936;DHT22;34745;52.276;10.528;2022-11-20T12:08:00;3.90;1.00
48936;DHT22;34745;52.276;10.528;2022-11-20T12:10:41;3.20;1.00
48936;DHT22;34745;52.276;10.528;2022-11-20T12:13:20;2.90;1.00
48936;DHT22;34745;52.276;10.528;2022-11-20T12:15:49;3.00;1.00
48936;DHT22;34745;52.276;10.528;2022-11-20T12:18:18;3.20;1.00
48936;DHT22;34745;52.276;10.528;2022-11-20T12:20:55;3.50;1.00
48936;DHT22;34745;52.276;10.528;2022-11-20T12:23:30;3.10;1.00
48936;DHT22;34745;52.276;10.528;2022-11-20T12:26:06;2.90;1.00
48936;DHT22;34745;52.276;10.528;2022-11-20T12:28:52;2.70;1.00
48936;DHT22;34745;52.276;10.528;2022-11-20T12:31:35;2.70;1.00
48936;DHT22;34745;52.276;10.528;2022-11-20T12:34:16;2.80;1.00
48936;DHT22;34745;52.276;10.528;2022-11-20T12:36:52;2.50;1.00
48936;DHT22;34745;52.276;10.528;2022-11-20T12:39:33;2.40;1.00
48936;DHT22;34745;52.276;10.528;2022-11-20T12:42:22;2.10;1.00
48936;DHT22;34745;52.276;10.528;2022-11-20T12:45:46;2.00;1.00
48936;DHT22;34745;52.276;10.528;2022-11-20T12:48:36;1.80;1.00
48936;DHT22;34745;52.276;10.528;2022-11-20T12:51:24;1.80;1.00
48936;DHT22;34745;52.276;10.528;2022-11-20T12:54:06;1.80;1.00
48936;DHT22;34745;52.276;10.528;2022-11-20T12:56:43;1.90;1.00
48936;DHT22;34745;52.276;10.528;2022-11-20T12:59:24;1.90;1.00
48936;DHT22;34745;52.276;10.528;2022-11-20T13:01:58;2.00;1.00
48936;DHT22;34745;52.276;10.528;2022-11-20T13:04:44;2.00;1.00
48936;DHT22;34745;52.276;10.528;2022-11-20T13:07:14;2.20;1.00
48936;DHT22;34745;52.276;10.528;2022-11-20T13:09:46;2.60;1.00
48936;DHT22;34745;52.276;10.528;2022-11-20T13:12:17;2.80;1.00
48936;DHT22;34745;52.276;10.528;2022-11-20T13:14:52;3.00;1.00
48936;DHT22;34745;52.276;10.528;2022-11-20T13:17:26;3.10;1.00
48936;DHT22;34745;52.276;10.528;2022-11-20T13:19:57;3.00;1.00
48936;DHT22;34745;52.276;10.528;2022-11-20T13:22:29;2.70;1.00
48936;DHT22;34745;52.276;10.528;2022-11-20T13:24:56;2.50;1.00
48936;DHT22;34745;52.276;10.528;2022-11-20T13:27:24;2.40;1.00
48936;DHT22;34745;52.276;10.528;2022-11-20T13:30:12;2.10;1.00
48936;DHT22;34745;52.276;10.528;2022-11-20T13:32:51;2.00;1.00
48936;DHT22;34745;52.276;10.528;2022-11-20T13:35:31;1.90;1.00
48936;DHT22;34745;52.276;10.528;2022-11-20T13:38:04;1.90;1.00
48936;DHT22;34745;52.276;10.528;2022-11-20T13:40:33;1.80;1.00
48936;DHT22;34745;52.276;10.528;2022-11-20T13:43:19;1.80;1.00
48936;DHT22;34745;52.276;10.528;2022-11-20T13:45:56;2.00;1.00
48936;DHT22;34745;52.276;10.528;2022-11-20T13:48:26;1.90;1.00
48936;DHT22;34745;52.276;10.528;2022-11-20T13:51:15;1.90;1.00
48936;DHT22;34745;52.276;10.528;2022-11-20T13:54:07;1.90;1.00
48936;DHT22;34745;52.276;10.528;2022-11-20T13:56:51;1.90;1.00
48936;DHT22;34745;52.276;10.528;2022-11-20T13:59:40;1.90;1.00
48936;DHT22;34745;52.276;10.528;2022-11-20T14:02:13;2.30;1.00
48936;DHT22;34745;52.276;10.528;2022-11-20T14:04:43;2.40;1.00
48936;DHT22;34745;52.276;10.528;2022-11-20T14:07:13;2.50;1.00
48936;DHT22;34745;52.276;10.528;2022-11-20T14:09:49;2.30;1.00
48936;DHT22;34745;52.276;10.528;2022-11-20T14:12:19;2.30;1.00
48936;DHT22;34745;52.276;10.528;2022-11-20T14:14:48;2.20;1.00
48936;DHT22;34745;52.276;10.528;2022-11-20T14:17:20;2.10;1.00
48936;DHT22;34745;52.276;10.528;2022-11-20T14:19:49;1.90;1.00
48936;DHT22;34745;52.276;10.528;2022-11-20T14:22:21;2.00;1.00
48936;DHT22;34745;52.276;10.528;2022-11-20T14:25:00;2.00;1.00
48936;DHT22;34745;52.276;10.528;2022-11-20T14:27:27;1.90;1.00
48936;DHT22;34745;52.276;10.528;2022-11-20T14:29:54;1.90;1.00
48936;DHT22;34745;52.276;10.528;2022-11-20T14:32:24;1.80;1.00
48936;DHT22;34745;52.276;10.528;2022-11-20T14:34:59;1.70;1.00
48936;DHT22;34745;52.276;10.528;2022-11-20T14:37:33;1.70;1.00
48936;DHT22;34745;52.276;10.528;2022-11-20T14:40:20;1.70;1.00
48936;DHT22;34745;52.276;10.528;2022-11-20T14:42:48;1.60;1.00
48936;DHT22;34745;52.276;10.528;2022-11-20T14:45:16;1.60;1.00
48936;DHT22;34745;52.276;10.528;2022-11-20T14:47:44;1.60;1.00
48936;DHT22;34745;52.276;10.528;2022-11-20T14:50:14;1.60;1.00
48936;DHT22;34745;52.276;10.528;2022-11-20T14:52:51;1.60;1.00
48936;DHT22;34745;52.276;10.528;2022-11-20T14:55:26;1.50;1.00
48936;DHT22;34745;52.276;10.528;2022-11-20T14:57:59;1.50;1.00
48936;DHT22;34745;52.276;10.528;2022-11-20T15:00:27;1.40;1.00
48936;DHT22;34745;52.276;10.528;2022-11-20T15:02:54;1.40;1.00
48936;DHT22;34745;52.276;10.528;2022-11-20T15:05:23;1.40;1.00
48936;DHT22;34745;52.276;10.528;2022-11-20T15:08:05;1.30;1.00
48936;DHT22;34745;52.276;10.528;2022-11-20T15:10:32;1.30;1.00
48936;DHT22;34745;52.276;10.528;2022-11-20T15:13:01;1.20;1.00
48936;DHT22;34745;52.276;10.528;2022-11-20T15:15:39;1.30;1.00
48936;DHT22;34745;52.276;10.528;2022-11-20T15:18:11;1.20;1.00
48936;DHT22;34745;52.276;10.528;2022-11-20T15:20:41;1.20;1.00
48936;DHT22;34745;52.276;10.528;2022-11-20T15:23:13;1.20;1.00
48936;DHT22;34745;52.276;10.528;2022-11-20T15:25:41;1.10;1.00
48936;DHT22;34745;52.276;10.528;2022-11-20T15:28:15;1.10;1.00
48936;DHT22;34745;52.276;10.528;2022-11-20T15:30:45;1.00;1.00
48936;DHT22;34745;52.276;10.528;2022-11-20T15:33:13;1.10;1.00
48936;DHT22;34745;52.276;10.528;2022-11-20T15:35:40;1.10;1.00
48936;DHT22;34745;52.276;10.528;2022-11-20T15:38:08;1.00;1.00
48936;DHT22;34745;52.276;10.528;2022-11-20T15:40:36;1.00;1.00
48936;DHT22;34745;52.276;10.528;2022-11-20T15:43:03;1.00;1.00
48936;DHT22;34745;52.276;10.528;2022-11-20T15:45:39;0.90;1.00
48936;DHT22;34745;52.276;10.528;2022-11-20T15:48:10;0.90;1.00
48936;DHT22;34745;52.276;10.528;2022-11-20T15:50:41;0.90;1.00
48936;DHT22;34745;52.276;10.528;2022-11-20T15:53:10;0.80;1.00
48936;DHT22;34745;52.276;10.528;2022-11-20T15:55:38;0.80;1.00
48936;DHT22;34745;52.276;10.528;2022-11-20T15:58:05;0.70;1.00
48936;DHT22;34745;52.276;10.528;2022-11-20T16:00:32;0.70;1.00